Terminal Aerodrome Forecast
Issued by NWS

Current Version | Previous Version | Text Only | Print | Product List | Glossary On
Versions: 1 2 3 4 5 6 7 8 9 10 11 12 13
674
FTUS42 KTBW 242205 AAA
TAFPGD
TAF AMD
KPGD 242205Z 2422/2518 07011KT P6SM VCTS SCT030CB BKN100 OVC250
      TEMPO 2422/2424 VRB15G25KT 4SM TSRA BKN030CB
     FM250100 05007KT P6SM SCT050 SCT250
     FM250900 05006KT P6SM SCT010 SCT250
     FM251500 06008KT P6SM SCT025 SCT100 SCT250=

USA.gov is the U.S. government's official web portal to all federal, state and local government web resources and services.